Time;durP1;ratioP1;P1;durP2;ratioP2;P2;SDS_P1;SDS_P2;PMS_P1;PMS_P2;Temp;Humidity;BMP_temperature;BMP_pressure;BME280_temperature;BME280_humidity;BME280_pressure;Samples;Min_cycle;Max_cycle;Signal;HPM_P1;HPM_P2
2023/11/12 10:00:22;;;;;;;;;5.25;4.00;;;;;;;;5106038;27;13425;-79
2023/11/12 10:02:47;;;;;;;;;3.50;3.50;;;;;;;;5108706;28;12389;-84
2023/11/12 10:05:14;;;;;;;;;7.50;5.50;;;;;;;;5107282;28;8788;-85
2023/11/12 10:07:42;;;;;;;;;2.00;2.00;;;;;;;;5108496;28;8799;-85
2023/11/12 10:10:22;;;;;;;;;1.00;1.00;;;;;;;;5108231;28;11388;-87
2023/11/12 10:12:48;;;;;;;;;2.00;2.00;;;;;;;;5108509;28;11391;-82
2023/11/12 10:15:13;;;;;;;;;0.00;0.00;;;;;;;;5108870;27;12067;-86
2023/11/12 10:17:45;;;;;;;;;0.00;0.00;;;;;;;;5123030;28;8827;-82
2023/11/12 10:20:19;;;;;;;;;0.00;0.00;;;;;;;;5106690;28;8842;-83
2023/11/12 10:22:44;;;;;;;;;0.00;0.00;;;;;;;;5108131;28;11698;-82
2023/11/12 10:25:10;;;;;;;;;0.25;0.25;;;;;;;;5108158;28;10968;-81
2023/11/12 10:27:50;;;;;;;;;2.50;1.00;;;;;;;;5108180;28;8767;-83
2023/11/12 10:30:17;;;;;;;;;3.75;2.25;;;;;;;;5109357;28;11102;-76
2023/11/12 10:32:42;;;;;;;;;0.00;0.00;;;;;;;;5107826;28;11141;-78
2023/11/12 10:35:10;;;;;;;;;2.00;0.00;;;;;;;;5105949;28;10935;-80
2023/11/12 10:37:53;;;;;;;;;0.00;0.00;;;;;;;;5106730;28;8907;-85
2023/11/12 10:40:20;;;;;;;;;6.25;3.25;;;;;;;;5107678;28;10998;-79
2023/11/12 10:42:45;;;;;;;;;20.25;14.75;;;;;;;;5107570;28;11366;-79
2023/11/12 10:45:15;;;;;;;;;1.00;1.00;;;;;;;;5107359;28;11419;-77
2023/11/12 10:47:41;;;;;;;;;2.00;1.00;;;;;;;;5106400;28;8939;-77
2023/11/12 10:50:07;;;;;;;;;0.00;0.00;;;;;;;;5106926;28;10900;-78
2023/11/12 10:52:36;;;;;;;;;1.00;1.00;;;;;;;;5107603;28;10810;-78
2023/11/12 10:55:05;;;;;;;;;0.00;0.00;;;;;;;;5108951;28;10899;-78
2023/11/12 10:57:31;;;;;;;;;1.00;1.00;;;;;;;;5107852;28;10860;-81
2023/11/12 10:59:59;;;;;;;;;1.25;1.25;;;;;;;;5105704;28;10876;-80
2023/11/12 11:02:32;;;;;;;;;1.25;1.00;;;;;;;;5105897;28;10921;-81
2023/11/12 11:04:58;;;;;;;;;1.00;1.00;;;;;;;;5105457;28;10833;-79
2023/11/12 11:07:23;;;;;;;;;1.00;1.00;;;;;;;;5104598;28;11072;-82
2023/11/12 11:09:49;;;;;;;;;1.00;0.50;;;;;;;;5103610;28;8798;-75
2023/11/12 11:12:15;;;;;;;;;2.25;1.00;;;;;;;;5092229;28;8805;-76
2023/11/12 11:14:40;;;;;;;;;3.00;2.00;;;;;;;;5092909;28;8820;-78
2023/11/12 11:17:06;;;;;;;;;1.25;1.00;;;;;;;;5093728;28;10807;-81
2023/11/12 11:20:01;;;;;;;;;1.00;1.00;;;;;;;;5093054;28;8807;-84
2023/11/12 11:22:31;;;;;;;;;1.50;1.00;;;;;;;;5050669;28;8824;-81
2023/11/12 11:24:57;;;;;;;;;1.50;1.00;;;;;;;;5050481;28;11021;-79
2023/11/12 11:27:26;;;;;;;;;2.75;1.00;;;;;;;;5050366;28;10880;-81
2023/11/12 11:30:10;;;;;;;;;1.00;1.00;;;;;;;;5050549;28;8921;-80
2023/11/12 11:32:36;;;;;;;;;3.00;1.50;;;;;;;;5050552;28;10881;-80
2023/11/12 11:35:03;;;;;;;;;3.00;2.00;;;;;;;;5049896;28;10979;-77
2023/11/12 11:37:46;;;;;;;;;3.75;3.75;;;;;;;;5050549;28;8807;-80
2023/11/12 11:40:27;;;;;;;;;3.00;2.00;;;;;;;;5050174;28;11514;-80
2023/11/12 11:43:12;;;;;;;;;2.75;2.75;;;;;;;;5033687;28;11077;-78
2023/11/12 11:45:56;;;;;;;;;2.00;2.00;;;;;;;;5050000;28;11140;-79
2023/11/12 11:48:21;;;;;;;;;3.50;2.00;;;;;;;;5049911;28;10922;-77
2023/11/12 11:50:47;;;;;;;;;1.00;1.00;;;;;;;;5050061;28;10999;-78
2023/11/12 11:53:13;;;;;;;;;2.00;1.00;;;;;;;;5050280;28;8915;-79
2023/11/12 11:55:41;;;;;;;;;1.00;1.00;;;;;;;;5052622;28;10744;-77
2023/11/12 11:58:07;;;;;;;;;2.00;2.00;;;;;;;;5043049;28;8940;-80
2023/11/12 12:00:32;;;;;;;;;2.75;2.00;;;;;;;;5094000;28;10980;-79
2023/11/12 12:03:01;;;;;;;;;2.00;2.00;;;;;;;;5092568;28;9756;-81
2023/11/12 12:05:32;;;;;;;;;2.00;0.75;;;;;;;;5092505;28;8862;-79
2023/11/12 12:08:03;;;;;;;;;2.00;2.00;;;;;;;;5092678;28;10665;-80
2023/11/12 12:10:29;;;;;;;;;1.25;1.25;;;;;;;;5092611;28;10843;-84
2023/11/12 12:12:55;;;;;;;;;2.25;0.75;;;;;;;;5092700;28;11607;-81
2023/11/12 12:15:20;;;;;;;;;3.00;2.50;;;;;;;;5092321;28;10734;-82
2023/11/12 12:17:46;;;;;;;;;3.00;1.75;;;;;;;;5091150;28;8804;-87
2023/11/12 12:20:11;;;;;;;;;1.00;1.00;;;;;;;;5091695;28;8900;-81
2023/11/12 12:22:37;;;;;;;;;1.00;1.00;;;;;;;;5089086;28;9658;-83
2023/11/12 12:25:04;;;;;;;;;2.00;2.00;;;;;;;;5092935;28;8880;-78
2023/11/12 12:27:29;;;;;;;;;2.00;2.00;;;;;;;;5092790;28;10669;-84
2023/11/12 12:29:54;;;;;;;;;2.50;2.50;;;;;;;;5094263;28;10912;-81
2023/11/12 12:32:20;;;;;;;;;3.50;2.50;;;;;;;;5092256;28;8884;-83
2023/11/12 12:34:56;;;;;;;;;3.50;3.00;;;;;;;;5091805;28;8815;-83
2023/11/12 12:37:21;;;;;;;;;2.75;2.75;;;;;;;;5092055;28;8776;-84
2023/11/12 12:39:58;;;;;;;;;1.00;1.00;;;;;;;;5091807;28;11080;-83
2023/11/12 12:42:26;;;;;;;;;2.75;2.00;;;;;;;;5091921;28;8780;-84
2023/11/12 12:44:52;;;;;;;;;5.00;3.00;;;;;;;;5091956;28;10901;-85
2023/11/12 12:47:27;;;;;;;;;3.50;2.25;;;;;;;;5091735;28;10917;-84
2023/11/12 12:49:52;;;;;;;;;2.75;2.75;;;;;;;;5091806;28;8791;-84
2023/11/12 12:52:21;;;;;;;;;3.00;3.00;;;;;;;;5091698;28;11703;-81
2023/11/12 12:54:59;;;;;;;;;2.00;2.00;;;;;;;;5091749;28;8792;-79
2023/11/12 12:57:24;;;;;;;;;2.00;1.00;;;;;;;;5091742;28;10717;-83
2023/11/12 12:59:50;;;;;;;;;2.00;2.00;;;;;;;;5093709;28;10934;-83
2023/11/12 13:02:16;;;;;;;;;1.50;1.00;;;;;;;;5091647;28;8780;-82
2023/11/12 13:04:44;;;;;;;;;1.00;1.00;;;;;;;;5091490;28;8788;-81
2023/11/12 14:11:46;;;;;;;;;2.00;2.00;;;;;;;;5044520;28;14291;-85
2023/11/12 14:39:17;;;;;;;;;1.00;1.00;;;;;;;;5105808;27;13388;-78
2023/11/12 14:42:04;;;;;;;;;1.00;1.00;;;;;;;;5085898;28;14245;-78
2023/11/12 14:44:56;;;;;;;;;2.25;1.00;;;;;;;;5105672;27;13380;-78
2023/11/12 14:47:21;;;;;;;;;2.00;1.00;;;;;;;;5108021;28;10342;-78
2023/11/12 14:49:47;;;;;;;;;3.50;1.75;;;;;;;;5108801;28;8795;-79
2023/11/12 14:52:14;;;;;;;;;1.00;1.00;;;;;;;;5108510;28;8923;-78
2023/11/12 14:54:43;;;;;;;;;2.00;1.50;;;;;;;;5108171;28;10625;-78
2023/11/12 16:28:11;;;;;;;;;12.75;11.25;;;;;;;;5106893;27;13399;-82
2023/11/12 16:30:37;;;;;;;;;15.00;13.00;;;;;;;;5107189;28;11612;-82
2023/11/12 16:33:03;;;;;;;;;17.50;16.25;;;;;;;;5106956;28;11526;-78
2023/11/12 16:35:31;;;;;;;;;15.50;13.00;;;;;;;;5108073;28;11485;-87
